Flight Track Log - Related Links

Times and Time Zones

All times are in EDT time to prevent confusion due to time zone crossing. See the CSZ9832 flight status page for this flight to view local times or setup timezone preferences in your user account.

Time Position Orientation Groundspeed Altitude Reporting Facility
EDT Latitude Longitude Course Direction KTS MPH feet Rate Location/Type
Thu 07:22:00 AM 39.3187 116.4377 188° South  Level Estimated
Thu 07:23:00 AM 39.2099 116.4169 188° South  Level Estimated
Thu 07:23:25 AM 40.1970 116.2110 188° South 347 399 19,600  Level FlightAware ADS-B
Thu 07:24:00 AM 39.1011 116.3963 188° South  Level Estimated
Thu 07:24:22 AM 40.1470 116.1230 233° Southwest 355 409 20,800  Level FlightAware ADS-B
Thu 07:24:56 AM 40.1080 116.0550 233° Southwest 367 422 23,200 2,435 Climbing FlightAware ADS-B
Thu 07:25:31 AM 40.0720 115.9930 233° Southwest 374 430 23,600 686 Climbing FlightAware ADS-B
Thu 07:26:06 AM 40.0350 115.9290 233° Southwest 380 437 24,000 1,406 Climbing FlightAware ADS-B
Thu 07:26:35 AM 40.0020 115.8730 232° Southwest 384 442 25,100 2,000 Climbing FlightAware ADS-B
Thu 07:27:06 AM 39.9690 115.8150 233° Southwest 390 449 26,000 1,859 Climbing FlightAware ADS-B
Thu 07:27:46 AM 39.9280 115.7440 233° Southwest 398 458 27,300 1,975 Climbing FlightAware ADS-B
Thu 07:28:25 AM 39.8830 115.6660 233° Southwest 399 459 28,600 1,275 Climbing FlightAware ADS-B
Thu 07:29:06 AM 39.8420 115.5960 233° Southwest 399 459 29,000 312 Climbing FlightAware ADS-B
Thu 07:29:42 AM 39.8080 115.5370 233° Southwest 399 459 29,000  Level FlightAware ADS-B
Thu 07:30:19 AM 39.7730 115.4770 233° Southwest 399 459 29,000  Level FlightAware ADS-B
Thu 07:30:55 AM 39.7390 115.4180 233° Southwest 399 459 29,000  Level FlightAware ADS-B
Thu 07:31:31 AM 39.7050 115.3590 233° Southwest 399 459 29,000  Level FlightAware ADS-B
Thu 07:32:07 AM 39.6710 115.3010 233° Southwest 399 459 29,000 115 Level FlightAware ADS-B
Thu 07:34:00 AM 39.4646 115.2791 185° South  Level Estimated
Thu 07:35:00 AM 39.3550 115.2675 185° South  Level Estimated
Thu 07:36:00 AM 39.2454 115.2560 185° South  Level Estimated
Thu 07:37:00 AM 39.1358 115.2445 185° South  Level Estimated
Thu 07:38:00 AM 39.0261 115.2330 185° South  Level Estimated
Thu 07:39:00 AM 38.9165 115.2216 185° South  Level Estimated
Thu 07:40:00 AM 38.8069 115.2102 185° South  Level Estimated
Thu 07:41:00 AM 38.6973 115.1988 185° South  Level Estimated
Thu 07:42:00 AM 38.5877 115.1875 185° South  Level Estimated
Thu 07:43:00 AM 38.4781 115.1762 185° South  Level Estimated
Thu 07:44:00 AM 38.3685 115.1649 185° South  Level Estimated
Thu 07:45:00 AM 38.2589 115.1537 185° South  Level Estimated
Thu 07:46:00 AM 38.1493 115.1425 185° South  Level Estimated
Thu 07:47:00 AM 38.0396 115.1314 185° South  Level Estimated
Thu 07:48:00 AM 37.9300 115.1202 185° South  Level Estimated
Thu 07:49:00 AM 37.8204 115.1092 185° South  Level Estimated
Thu 07:50:00 AM 37.7108 115.0981 185° South  Level Estimated
Thu 07:51:00 AM 37.6012 115.0871 185° South  Level Estimated
Thu 07:52:00 AM 37.4915 115.0761 185° South  Level Estimated
Thu 07:53:00 AM 37.3819 115.0651 185° South  Level Estimated
Thu 07:54:00 AM 37.2723 115.0542 185° South  Level Estimated
Thu 07:55:00 AM 37.1627 115.0433 185° South  Level Estimated
Thu 07:56:00 AM 37.0530 115.0324 185° South  Level Estimated
Thu 07:57:00 AM 36.9434 115.0216 185° South  Level Estimated
Thu 07:58:00 AM 36.8338 115.0108 185° South  Level Estimated
Thu 07:59:00 AM 36.7241 115.0000 185° South  Level Estimated
Thu 08:00:00 AM 36.6145 114.9893 184° South  Level Estimated
Thu 08:01:00 AM 36.5049 114.9786 184° South  Level Estimated
Thu 08:02:00 AM 36.3952 114.9679 184° South  Level Estimated
Thu 08:03:00 AM 36.2856 114.9572 184° South  Level Estimated
Thu 08:04:00 AM 36.1760 114.9466 184° South  Level Estimated
Thu 08:05:00 AM 36.0663 114.9360 184° South  Level Estimated
Thu 08:06:00 AM 35.9567 114.9255 184° South  Level Estimated
Thu 08:07:00 AM 35.8471 114.9149 184° South  Level Estimated
Thu 08:08:00 AM 35.7374 114.9044 184° South  Level Estimated
Thu 08:09:00 AM 35.6278 114.8940 184° South  Level Estimated
Thu 08:10:00 AM 35.5182 114.8835 184° South  Level Estimated
Thu 08:11:00 AM 35.4085 114.8731 184° South  Level Estimated
Thu 08:12:00 AM 35.2989 114.8627 184° South  Level Estimated
Thu 08:13:00 AM 35.1892 114.8523 184° South  Level Estimated
Thu 08:14:00 AM 35.0796 114.8420 184° South  Level Estimated
Thu 08:15:00 AM 34.9700 114.8317 184° South  Level Estimated
Thu 08:15:44 AM 33.9610 114.5820 184° South 475 547 34,100  Level FlightAware ADS-B
Thu 08:16:14 AM 33.8900 114.5760 184° South 473 544 34,100  Level FlightAware ADS-B
Thu 08:16:55 AM 33.8030 114.5680 184° South 471 542 34,100  Level FlightAware ADS-B
Thu 08:17:37 AM 33.7100 114.5590 185° South 468 539 34,100  Level FlightAware ADS-B
Thu 08:18:12 AM 33.6470 114.5520 185° South 467 537 34,100  Level FlightAware ADS-B
Thu 08:18:44 AM 33.5690 114.5450 184° South 465 535 34,100  Level FlightAware ADS-B
Thu 08:19:31 AM 33.4640 114.5350 185° South 464 534 34,100  Level FlightAware ADS-B
Thu 08:20:00 AM 33.4070 114.5290 185° South 461 531 34,100  Level FlightAware ADS-B
Thu 08:20:40 AM 33.3210 114.5210 184° South 461 531 34,100  Level FlightAware ADS-B
Thu 08:21:10 AM 33.2540 114.5150 184° South 459 528 34,100  Level FlightAware ADS-B
Thu 08:21:47 AM 33.1770 114.5070 185° South 461 531 34,100  Level FlightAware ADS-B
Thu 08:22:23 AM 33.0990 114.5000 184° South 462 532 34,100  Level FlightAware ADS-B
Thu 08:22:57 AM 33.0360 114.4940 185° South 462 532 34,100  Level FlightAware ADS-B
Thu 08:23:33 AM 33.0240 114.4930 184° South 461 531 34,100  Level FlightAware ADS-B
Thu 08:24:11 AM 32.9560 114.4850 186° South 461 531 34,100  Level FlightAware ADS-B
Thu 08:24:47 AM 32.8910 114.4790 184° South 461 531 34,100  Level FlightAware ADS-B
Thu 08:25:23 AM 32.8260 114.4720 185° South 461 531 34,100  Level FlightAware ADS-B
Thu 08:26:00 AM 32.7590 114.4650 185° South 461 531 34,100  Level FlightAware ADS-B
Thu 08:26:36 AM 32.6940 114.4580 185° South 461 531 34,100  Level FlightAware ADS-B
Thu 08:27:09 AM 32.4890 114.4410 184° South 467 537 34,100  Level FlightAware ADS-B
Thu 08:27:45 AM 32.4140 114.4340 185° South 466 536 34,100  Level FlightAware ADS-B
Thu 08:28:23 AM 32.3290 114.4260 185° South 465 535 34,100  Level FlightAware ADS-B
Thu 08:28:53 AM 32.2640 114.4200 184° South 464 534 34,100  Level FlightAware ADS-B
Thu 08:29:40 AM 32.1640 114.4110 184° South 459 528 34,100  Level FlightAware ADS-B
Thu 08:30:20 AM 32.0910 114.4040 185° South 458 527 34,100  Level FlightAware ADS-B
Thu 08:30:54 AM 32.0110 114.3960 185° South 455 524 34,100  Level FlightAware ADS-B
Thu 08:31:30 AM 31.9410 114.3890 185° South 453 521 34,100  Level FlightAware ADS-B
Thu 08:32:04 AM 31.8700 114.3830 184° South 451 519 34,100  Level FlightAware ADS-B
Thu 08:32:35 AM 31.8050 114.3770 184° South 449 517 34,100  Level FlightAware ADS-B
Thu 08:33:25 AM 31.7100 114.3680 185° South 448 516 34,100  Level FlightAware ADS-B
Thu 08:34:11 AM 31.6040 114.3580 185° South 448 516 34,100  Level FlightAware ADS-B
Thu 08:34:47 AM 31.5420 114.3520 185° South 448 516 34,100  Level FlightAware ADS-B
Thu 08:35:28 AM 31.4520 114.3430 185° South 453 521 34,100  Level FlightAware ADS-B
Thu 08:36:04 AM 31.3880 114.3370 185° South 453 521 34,100  Level FlightAware ADS-B
Thu 08:36:38 AM 31.3060 114.3130 194° South 455 524 34,100  Level FlightAware ADS-B
Thu 08:36:47 AM 31.2930 114.3060 205° Southwest 438 504 34,100  Level FlightAware ADS-B
Thu 08:37:27 AM 31.2300 114.2730 204° Southwest 438 504 34,100  Level FlightAware ADS-B
Thu 08:38:01 AM 31.1490 114.2310 204° Southwest 439 505 34,100  Level FlightAware ADS-B
Thu 08:38:41 AM 31.0720 114.1900 205° Southwest 439 505 34,100  Level FlightAware ADS-B
Thu 08:39:34 AM 30.9800 114.1420 204° Southwest 440 506 34,100  Level FlightAware ADS-B
Thu 08:40:12 AM 30.9200 114.1110 204° Southwest 440 506 34,100  Level FlightAware ADS-B
Thu 08:40:49 AM 30.9770 114.1400 24° Northeast 441 507 34,100  Level FlightAware ADS-B
Thu 08:41:25 AM 30.9200 114.1110 204° Southwest 441 507 34,100  Level FlightAware ADS-B
Thu 08:42:01 AM 30.8630 114.0810 204° Southwest 441 507 34,100  Level FlightAware ADS-B
Thu 08:42:37 AM 30.8060 114.0520 204° Southwest 441 507 34,100  Level FlightAware ADS-B
Thu 08:43:14 AM 30.7470 114.0210 204° Southwest 441 507 34,100  Level FlightAware ADS-B
Thu 08:43:50 AM 30.6900 113.9920 204° Southwest 441 507 34,100  Level FlightAware ADS-B
Thu 08:44:26 AM 30.6330 113.9620 204° Southwest 441 507 34,100  Level FlightAware ADS-B
Thu 08:45:02 AM 30.5760 113.9330 204° Southwest 441 507 34,100  Level FlightAware ADS-B
Thu 08:45:36 AM 30.5220 113.9050 204° Southwest 441 507 34,100  Level FlightAware ADS-B
Thu 08:46:12 AM 30.4650 113.8750 204° Southwest 441 507 34,100  Level FlightAware ADS-B
Thu 08:46:48 AM 30.4080 113.8460 204° Southwest 441 507 34,100  Level FlightAware ADS-B
Thu 08:47:24 AM 30.3510 113.8160 204° Southwest 441 507 34,100  Level FlightAware ADS-B
Thu 08:48:00 AM 30.2940 113.7870 204° Southwest 441 507 34,100  Level FlightAware ADS-B
Thu 08:48:36 AM 30.2370 113.7580 204° Southwest 441 507 34,100  Level FlightAware ADS-B
Thu 08:49:12 AM 30.1800 113.7280 204° Southwest 441 507 34,100  Level FlightAware ADS-B
Thu 08:49:48 AM 30.1230 113.6990 204° Southwest 441 507 34,100 -337 Level FlightAware ADS-B
Thu 08:52:00 AM 29.8811 113.7029 179° South  Level Estimated
Thu 08:53:00 AM 29.7711 113.7047 179° South  Level Estimated
Thu 08:54:00 AM 29.6612 113.7065 179° South  Level Estimated
Thu 08:55:00 AM 29.5512 113.7082 179° South  Level Estimated
Thu 08:56:00 AM 29.4412 113.7100 179° South  Level Estimated
Thu 08:57:00 AM 29.3313 113.7117 179° South  Level Estimated
Thu 08:58:00 AM 29.2213 113.7135 179° South  Level Estimated
Thu 08:59:00 AM 29.1114 113.7152 179° South  Level Estimated
Thu 09:00:00 AM 29.0014 113.7170 179° South  Level Estimated
Thu 09:01:00 AM 28.8915 113.7187 179° South  Level Estimated
Thu 09:02:00 AM 28.7815 113.7205 179° South  Level Estimated
Thu 09:03:00 AM 28.6715 113.7222 179° South  Level Estimated
Thu 09:04:00 AM 28.5616 113.7239 179° South  Level Estimated
Thu 09:05:00 AM 28.4516 113.7256 179° South  Level Estimated
Thu 09:06:00 AM 28.3417 113.7274 179° South  Level Estimated
Thu 09:07:00 AM 28.2317 113.7291 179° South  Level Estimated
Thu 09:08:00 AM 28.1217 113.7308 179° South  Level Estimated
Thu 09:09:00 AM 28.0118 113.7325 179° South  Level Estimated
Thu 09:10:00 AM 27.9018 113.7342 179° South  Level Estimated
Thu 09:11:00 AM 27.7918 113.7359 179° South  Level Estimated
Thu 09:12:00 AM 27.6819 113.7376 179° South  Level Estimated
Thu 09:13:00 AM 27.5719 113.7393 179° South  Level Estimated
Thu 09:14:00 AM 27.4620 113.7410 179° South  Level Estimated
Thu 09:15:00 AM 27.3520 113.7427 179° South  Level Estimated
Thu 09:16:00 AM 27.2421 113.7444 179° South  Level Estimated
Thu 09:17:00 AM 27.1321 113.7461 179° South  Level Estimated
Thu 09:18:00 AM 27.0221 113.7478 179° South  Level Estimated
Thu 09:19:00 AM 26.9122 113.7495 179° South  Level Estimated
Thu 09:20:00 AM 26.8022 113.7512 179° South  Level Estimated
Thu 09:21:00 AM 26.6922 113.7528 179° South  Level Estimated
Thu 09:22:00 AM 26.5823 113.7545 179° South  Level Estimated
Thu 09:23:00 AM 26.4723 113.7562 179° South  Level Estimated
Thu 09:24:00 AM 26.3624 113.7578 179° South  Level Estimated
Thu 09:25:00 AM 26.2524 113.7595 179° South  Level Estimated
Thu 09:26:00 AM 26.1425 113.7611 179° South  Level Estimated
Thu 09:27:00 AM 26.0325 113.7628 179° South  Level Estimated
Thu 09:28:00 AM 25.9225 113.7644 179° South  Level Estimated
Thu 09:29:00 AM 25.8126 113.7661 179° South  Level Estimated
Thu 09:30:00 AM 25.7026 113.7677 179° South  Level Estimated
Thu 09:31:00 AM 25.5926 113.7694 179° South  Level Estimated
Thu 09:32:00 AM 25.4827 113.7710 179° South  Level Estimated
Thu 09:33:00 AM 25.3727 113.7727 179° South  Level Estimated
Thu 09:34:00 AM 25.2628 113.7743 179° South  Level Estimated
Thu 09:35:00 AM 25.1528 113.7759 179° South  Level Estimated
Thu 09:36:00 AM 25.0429 113.7775 179° South  Level Estimated
Thu 09:37:00 AM 24.9329 113.7792 179° South  Level Estimated
Thu 09:37:48 AM 24.0870 113.9240 179° South 370 426 17,700  Level FlightAware ADS-B
Thu 09:38:00 AM 24.0710 113.9100 219° Southwest 370 426 17,700  Level FlightAware ADS-B
Thu 09:38:36 AM 24.0250 113.8650 222° Southwest 370 426 17,700  Level FlightAware ADS-B
Thu 09:39:12 AM 23.9800 113.8200 222° Southwest 370 426 17,700  Level FlightAware ADS-B
Thu 09:39:42 AM 23.9410 113.7820 222° Southwest 372 428 17,700 -348 Level FlightAware ADS-B
Thu 09:40:21 AM 23.8910 113.7330 222° Southwest 372 428 17,300 -750 Descending FlightAware ADS-B
Thu 09:40:54 AM 23.8500 113.6920 222° Southwest 373 429 16,800 -957 Descending FlightAware ADS-B
Thu 09:41:30 AM 23.8020 113.6460 221° Southwest 370 426 16,200 -930 Descending FlightAware ADS-B
Thu 09:42:05 AM 23.7580 113.6030 222° Southwest 368 423 15,700 -417 Descending FlightAware ADS-B
Thu 09:42:42 AM 23.7110 113.5570 222° Southwest 365 420 15,700  Level FlightAware ADS-B
Thu 09:43:13 AM 23.6720 113.5190 222° Southwest 366 421 15,700  Level FlightAware ADS-B
Thu 09:43:50 AM 23.6270 113.4750 222° Southwest 366 421 15,700  Level FlightAware ADS-B
Thu 09:44:27 AM 23.5790 113.4280 222° Southwest 365 420 15,700 -265 Level FlightAware ADS-B
Thu 09:44:58 AM 23.5390 113.3930 219° Southwest 366 421 15,400 -778 Descending FlightAware ADS-B
Thu 09:45:21 AM 23.5030 113.3730 207° Southwest 367 422 15,000 -964 Descending FlightAware ADS-B
Thu 09:45:54 AM 23.4500 113.3530 199° South 361 415 14,500 -1,015 Descending FlightAware ADS-B
Thu 09:46:26 AM 23.4000 113.3390 194° South 353 406 13,900 -656 Descending FlightAware ADS-B
Thu 09:46:58 AM 23.3480 113.3470 172° South 351 404 13,800 -269 Descending FlightAware ADS-B
Thu 09:47:33 AM 23.2920 113.3630 165° South 352 405 13,600 -667 Descending FlightAware ADS-B
Thu 09:48:10 AM 23.2350 113.3800 165° South 332 382 13,000 -957 Descending FlightAware ADS-B
Thu 09:48:42 AM 23.1890 113.3940 164° South 312 359 12,500 -1,147 Descending FlightAware ADS-B
Thu 09:49:18 AM 23.1420 113.4080 165° South 305 351 11,700 -1,333 Descending FlightAware ADS-B
Thu 09:49:54 AM 23.0900 113.4230 165° South 293 337 10,900 -750 Descending FlightAware ADS-B
Thu 09:50:30 AM 23.0460 113.4360 165° South 268 308 10,800 -529 Descending FlightAware ADS-B
Thu 09:51:02 AM 23.0070 113.4470 165° South 264 304 10,300 -1,091 Descending FlightAware ADS-B
Thu 09:51:25 AM 22.9810 113.4550 164° South 260 299 9,800 -1,200 Descending FlightAware ADS-B
Thu 09:51:37 AM 22.9660 113.4590 166° South 260 299 9,600 -1,235 Descending FlightAware ADS-B
Thu 09:51:59 AM 22.9410 113.4660 166° South 259 298 9,100 -1,304 Descending FlightAware ADS-B
Thu 09:52:23 AM 22.9140 113.4740 165° South 257 296 8,600 -1,256 Descending FlightAware ADS-B
Thu 09:52:42 AM 22.8910 113.4810 164° South 257 296 8,200 -1,200 Descending FlightAware ADS-B
Thu 09:53:03 AM 22.8670 113.4870 167° South 256 295 7,800 -1,135 Descending FlightAware ADS-B
Thu 09:53:19 AM 22.8520 113.4900 170° South 254 292 7,500 -667 Descending FlightAware ADS-B
Thu 09:53:39 AM 22.8260 113.4960 168° South 240 276 7,400 -585 Descending FlightAware ADS-B
Thu 09:54:00 AM 22.8030 113.5010 169° South 233 268 7,100 -811 Descending FlightAware ADS-B
Thu 09:54:16 AM 22.7870 113.5050 167° South 227 261 6,900 -581 Descending FlightAware ADS-B
Thu 09:54:31 AM 22.7710 113.5090 167° South 214 246 6,800 -439 Descending FlightAware ADS-B
Thu 09:54:57 AM 22.7480 113.5140 169° South 194 223 6,600 -533 Descending FlightAware ADS-B
Thu 09:55:16 AM 22.7310 113.5180 168° South 187 215 6,400 -960 Descending FlightAware ADS-B
Thu 09:55:22 AM 22.7270 113.5200 155° Southeast 185 213 6,200 -1,286 Descending FlightAware ADS-B
Thu 09:55:30 AM 22.7220 113.5250 137° Southeast 179 206 6,100 -800 Descending FlightAware ADS-B
Thu 09:55:37 AM 22.7190 113.5300 123° Southeast 176 203 6,000 -800 Descending FlightAware ADS-B
Thu 09:55:45 AM 22.7180 113.5370 99° East 171 197 5,900 -686 Descending FlightAware ADS-B
Thu 09:56:12 AM 22.7270 113.5570 64° Northeast 169 194 5,600 -581 Descending FlightAware ADS-B
Thu 09:56:16 AM 22.7290 113.5590 43° Northeast 169 194 5,600 -857 Level FlightAware ADS-B
Thu 09:56:26 AM 22.7370 113.5630 25° Northeast 170 196 5,400 -1,200 Descending FlightAware ADS-B
Thu 09:56:46 AM 22.7510 113.5710 28° Northeast 171 197 5,000 -1,091 Descending FlightAware ADS-B
Thu 09:57:10 AM 22.7680 113.5800 26° Northeast 169 194 4,600 -955 Descending FlightAware ADS-B
Thu 09:57:30 AM 22.7810 113.5890 33° Northeast 166 191 4,300 -1,024 Descending FlightAware ADS-B
Thu 09:57:51 AM 22.7920 113.6010 45° Northeast 165 190 3,900 -1,050 Descending FlightAware ADS-B
Thu 09:58:10 AM 22.8020 113.6140 50° Northeast 166 191 3,600 -909 Descending FlightAware ADS-B
Thu 09:58:24 AM 22.8070 113.6240 62° Northeast 167 192 3,400 -1,000 Descending FlightAware ADS-B
Thu 09:58:40 AM 22.8090 113.6370 81° East 169 194 3,100 -789 Descending FlightAware ADS-B
Thu 09:59:02 AM 22.8120 113.6550 80° East 170 196 2,900 -625 Descending FlightAware ADS-B
Thu 09:59:28 AM 22.8040 113.6760 112° Southeast 173 199 2,600 -682 Descending FlightAware ADS-B
Thu 09:59:46 AM 22.7970 113.6890 120° Southeast 174 200 2,400 -409 Descending FlightAware ADS-B
Thu 10:00:12 AM 22.7870 113.7080 120° Southeast 173 199 2,300 -158 Descending FlightAware ADS-B
Thu 10:00:24 AM 22.7790 113.7160 137° Southeast 176 203 2,300 -188 Level FlightAware ADS-B
Thu 10:00:44 AM 22.7650 113.7240 152° Southeast 175 201 2,200 -545 Descending FlightAware ADS-B
Thu 10:01:08 AM 22.7480 113.7340 152° Southeast 164 189 1,900 -727 Descending FlightAware ADS-B
Thu 10:01:17 AM 22.7420 113.7370 155° Southeast 162 186 1,800 -750 Descending FlightAware ADS-B
Thu 10:01:40 AM 22.7260 113.7460 153° Southeast 162 186 1,500 -837 Descending FlightAware ADS-B
Thu 10:02:00 AM 22.7140 113.7520 155° Southeast 159 183 1,200 -750 Descending FlightAware ADS-B
Thu 10:02:12 AM 22.7050 113.7570 153° Southeast 157 181 1,100 -789 Descending FlightAware ADS-B
Thu 10:02:38 AM 22.6880 113.7660 154° Southeast 152 175 700 -818 Descending FlightAware ADS-B
Thu 10:02:56 AM 22.6770 113.7720 153° Southeast 148 170 500 -789 Descending FlightAware ADS-B
Thu 10:03:16 AM 22.6650 113.7790 152° Southeast 146 168 200 -900 Descending FlightAware ADS-B
Thu 10:03:41 AM 22.6510 113.7870 152° Southeast 144 166 -480 Descending FlightAware ADS-B
Thu 10:04:01 AM 22.6410 113.7920 155° Southeast 86 99  Level FlightAware ADS-B

Login

Don't have an account? Register now (free) for customized features, flight alerts, and more!